Accueil
METAR-TAF:

METAR-TAF

Aéroports :

Aéroport international Mehrabad

Téhéran, Iran

latitude: 35-41N, longitude: 051-21E, altitude: 1204 m

Observation

Le bulletin a été fait il y a 24 minutes, à 06:00 UTC
Vent 6 kt de est
Température 32°C
Humidité 16%
Pression 1014 hPa
Visibilité 10 km ou plus
pas de nuages en-dessous de 1500 mètres et pas de cumulonimbus.

METAR: OIII 150600Z 10006KT CAVOK 32/03 Q1013 A2993 NOSIG

Heure: 10:54 (06:24 UTC)

Prévision

Le bulletin a été fait il y a 1 heure et 14 minutes, à 05:10 UTC
Prévision valable du 15 à 06 UTC au 16 à 12 UTC
Vent 8 kt de sud-est
Visibilité: 8000 m
Temporairement
du 15 à 09 UTC au 15 à 15 UTC
Vent 12 kt de sud

TAF: OIII 150510Z 1506/1612 13008KT 8000 NSC TEMPO 1509/1515 19012KT

Observations et prévisions météorologiques de plus de 4000 aéroports (messages METAR et TAF).

Les stations disponibles sont représentées par des disques jaunes et rouges sur la carte.

Passer la souris dessus pour voir le nom de la station.

Cliquer dessus pour voir les observations et prévisions météorologiques.

Pour changer de carte: cliquez sur les boutons verts avec une croix noire pour zoomer, sur le bouton vert avec un tiret pour effectuer un zoom arrière, ou sur les flèches vertes pour les cartes adjacentes.


METAR-TAF: